createdAt,value
2023-02-15T00:01:06.797Z,74.39
2023-02-15T00:06:10.199Z,74.97
2023-02-15T00:11:18.016Z,75.37
2023-02-15T00:16:22.627Z,75.74
2023-02-15T00:21:40.081Z,74.56
2023-02-15T00:26:45.278Z,72.06
2023-02-15T00:31:49.491Z,72.80
2023-02-15T00:36:53.711Z,73.50
2023-02-15T00:41:57.822Z,72.25
2023-02-15T00:47:03.590Z,71.89
2023-02-15T00:52:07.042Z,72.11
2023-02-15T00:57:10.970Z,72.05
2023-02-15T01:02:14.863Z,72.67
2023-02-15T01:07:21.430Z,72.01
2023-02-15T01:12:44.551Z,71.91
2023-02-15T01:17:52.541Z,71.73
2023-02-15T01:22:59.705Z,72.31
2023-02-15T01:28:03.885Z,72.35
2023-02-15T01:33:07.520Z,72.64
2023-02-15T01:38:20.737Z,72.14
2023-02-15T01:43:41.568Z,72.49
2023-02-15T01:48:52.157Z,71.71
2023-02-15T01:54:09.067Z,72.38
2023-02-15T01:59:19.736Z,73.40
2023-02-15T02:04:52.694Z,73.45
2023-02-15T02:09:56.471Z,73.31
2023-02-15T02:15:03.260Z,73.02
2023-02-15T02:20:27.157Z,72.17
2023-02-15T02:25:47.876Z,72.64
2023-02-15T02:31:39.179Z,73.88
2023-02-15T02:36:45.883Z,73.97
2023-02-15T02:42:07.418Z,73.41
2023-02-15T02:47:35.855Z,73.77
2023-02-15T02:52:47.505Z,73.48
2023-02-15T02:58:18.050Z,73.58
2023-02-15T03:03:31.860Z,74.42
2023-02-15T03:08:41.658Z,74.37
2023-02-15T03:13:46.621Z,74.87
2023-02-15T03:18:59.007Z,74.10
2023-02-15T03:24:27.815Z,74.10
2023-02-15T03:29:33.442Z,73.78
2023-02-15T03:34:40.363Z,73.25
2023-02-15T03:39:50.820Z,73.97
2023-02-15T03:45:03.533Z,74.67
2023-02-15T03:50:30.706Z,74.74
2023-02-15T03:55:35.547Z,75.35
2023-02-15T04:01:03.748Z,75.60
2023-02-15T04:06:07.502Z,75.84
2023-02-15T04:11:10.875Z,76.26
2023-02-15T04:16:14.674Z,76.76
2023-02-15T04:21:36.729Z,76.56
2023-02-15T04:26:40.135Z,76.05
2023-02-15T04:31:44.149Z,75.37
2023-02-15T04:36:47.584Z,75.73
2023-02-15T04:41:50.951Z,76.30
2023-02-15T04:46:54.488Z,76.52
2023-02-15T04:51:57.792Z,76.78
2023-02-15T04:57:01.199Z,77.54
2023-02-15T05:02:05.024Z,77.34
2023-02-15T05:07:08.531Z,77.02
2023-02-15T05:12:12.874Z,76.63
2023-02-15T05:17:17.232Z,76.56
2023-02-15T05:22:20.909Z,76.49
2023-02-15T05:27:42.755Z,76.51
2023-02-15T05:32:46.994Z,75.95
2023-02-15T05:37:50.983Z,76.68
2023-02-15T05:42:54.349Z,76.57
2023-02-15T05:47:59.319Z,77.38
2023-02-15T05:53:02.850Z,77.60
2023-02-15T05:58:06.974Z,77.15
2023-02-15T06:03:10.472Z,77.15
2023-02-15T06:08:14.000Z,76.90
2023-02-15T06:13:43.066Z,77.30
2023-02-15T06:18:46.825Z,77.82
2023-02-15T06:23:50.245Z,77.94
2023-02-15T06:28:53.679Z,78.21
2023-02-15T06:34:02.496Z,78.92
2023-02-15T06:39:06.560Z,78.71
2023-02-15T06:44:10.359Z,78.36
2023-02-15T06:49:13.985Z,78.31
2023-02-15T06:54:17.817Z,78.14
2023-02-15T06:59:21.246Z,77.93
2023-02-15T07:04:25.177Z,77.88
2023-02-15T07:09:28.968Z,77.48
2023-02-15T07:14:33.074Z,76.87
2023-02-15T07:19:36.701Z,76.25
2023-02-15T07:24:40.236Z,76.34
2023-02-15T07:29:43.799Z,76.38
2023-02-15T07:34:47.146Z,77.07
2023-02-15T07:39:51.715Z,76.40
2023-02-15T07:44:55.320Z,76.37
2023-02-15T07:50:08.682Z,75.98
2023-02-15T07:55:14.901Z,74.89
2023-02-15T08:00:31.053Z,74.15
2023-02-15T08:05:34.837Z,72.84
2023-02-15T08:10:56.694Z,71.61
2023-02-15T08:16:48.770Z,69.89
2023-02-15T08:21:58.350Z,65.16
2023-02-15T08:27:06.845Z,62.65
2023-02-15T08:32:16.168Z,63.14
2023-02-15T08:37:29.756Z,63.32
2023-02-15T08:42:36.418Z,61.23
2023-02-15T08:47:39.921Z,59.10
2023-02-15T08:52:43.656Z,57.71
2023-02-15T08:57:47.106Z,57.58
2023-02-15T09:02:51.478Z,59.12
2023-02-15T09:07:55.018Z,58.01
2023-02-15T09:13:06.070Z,57.74
2023-02-15T09:18:09.691Z,58.93
2023-02-15T09:23:25.511Z,57.08
2023-02-15T09:28:30.618Z,55.53
2023-02-15T09:33:54.389Z,56.50
2023-02-15T09:39:12.784Z,56.50
2023-02-15T09:44:33.996Z,56.37
2023-02-15T09:50:11.986Z,55.10
2023-02-15T09:55:56.778Z,56.34
2023-02-15T10:01:26.101Z,56.31
2023-02-15T10:07:14.854Z,55.06
2023-02-15T10:12:43.729Z,57.89
2023-02-15T10:18:07.568Z,61.06
2023-02-15T10:23:39.676Z,61.27
2023-02-15T10:28:47.665Z,62.85
2023-02-15T10:34:07.694Z,62.25
2023-02-15T10:39:22.260Z,63.37
2023-02-15T10:45:05.438Z,62.98
2023-02-15T10:50:37.865Z,62.13
2023-02-15T10:56:13.746Z,62.75
2023-02-15T11:01:26.332Z,64.33
2023-02-15T11:06:29.938Z,62.60
2023-02-15T11:11:42.105Z,63.78
2023-02-15T11:16:53.225Z,63.48
2023-02-15T11:22:01.775Z,63.25
2023-02-15T11:27:30.244Z,63.25
2023-02-15T11:32:40.378Z,63.47
2023-02-15T11:37:53.450Z,62.83
2023-02-15T11:43:12.206Z,62.63
2023-02-15T11:48:21.488Z,62.82
2023-02-15T11:53:28.794Z,62.68
2023-02-15T11:58:59.664Z,62.26
2023-02-15T12:04:07.869Z,61.85
2023-02-15T12:09:57.463Z,61.58
2023-02-15T12:15:03.557Z,61.66
2023-02-15T12:20:19.113Z,60.49
2023-02-15T12:25:28.255Z,60.97
2023-02-15T12:30:40.845Z,60.41
2023-02-15T12:35:45.372Z,60.81
2023-02-15T12:41:01.079Z,61.50
2023-02-15T12:46:38.481Z,60.49
2023-02-15T12:52:12.474Z,60.95
2023-02-15T12:57:36.165Z,61.14
2023-02-15T13:02:46.020Z,60.85
2023-02-15T13:07:52.367Z,60.76
2023-02-15T13:12:58.882Z,60.80
2023-02-15T13:18:03.326Z,60.68
2023-02-15T13:23:36.433Z,60.25
2023-02-15T13:29:32.110Z,59.24
2023-02-15T13:34:38.525Z,60.74
2023-02-15T13:39:48.356Z,60.72
2023-02-15T13:45:09.629Z,60.17
2023-02-15T13:50:42.985Z,59.90
2023-02-15T13:55:55.869Z,59.29
2023-02-15T14:01:36.700Z,59.69
2023-02-15T14:06:50.771Z,59.45
2023-02-15T14:12:22.832Z,59.01
2023-02-15T14:17:45.150Z,58.66
2023-02-15T14:23:02.472Z,58.94
2023-02-15T14:28:18.978Z,58.51
2023-02-15T14:33:39.502Z,58.79
2023-02-15T14:39:06.138Z,59.19
2023-02-15T14:44:17.516Z,58.88
2023-02-15T14:49:27.462Z,58.93
2023-02-15T14:54:31.618Z,58.62
2023-02-15T14:59:57.031Z,60.51
2023-02-15T15:05:10.003Z,61.84
2023-02-15T15:10:20.956Z,63.13
2023-02-15T15:15:33.002Z,63.80
2023-02-15T15:20:51.242Z,65.66
2023-02-15T15:26:28.867Z,65.76
2023-02-15T15:31:58.663Z,66.97
2023-02-15T15:37:20.512Z,67.18
2023-02-15T15:42:45.396Z,67.31
2023-02-15T15:48:07.925Z,68.26
2023-02-15T15:53:22.326Z,69.20
2023-02-15T15:58:26.575Z,69.90
2023-02-15T16:03:30.226Z,70.33
2023-02-15T16:08:39.596Z,71.58
2023-02-15T16:13:44.181Z,71.69
2023-02-15T16:18:51.689Z,71.64
2023-02-15T16:24:14.960Z,72.53
2023-02-15T16:29:29.035Z,73.22
2023-02-15T16:34:36.169Z,73.26
2023-02-15T16:39:42.940Z,73.12
2023-02-15T16:44:50.963Z,72.84
2023-02-15T16:49:57.127Z,72.16
2023-02-15T16:55:06.277Z,71.88
2023-02-15T17:00:29.029Z,72.82
2023-02-15T17:05:49.380Z,74.39
2023-02-15T17:11:06.852Z,74.79
2023-02-15T17:16:50.764Z,73.98
2023-02-15T17:21:59.520Z,75.36
2023-02-15T17:27:14.594Z,76.33
2023-02-15T17:32:44.256Z,77.34
2023-02-15T17:37:55.878Z,77.63
2023-02-15T17:43:02.440Z,77.85
2023-02-15T17:48:07.222Z,78.17
2023-02-15T17:53:36.445Z,78.98
2023-02-15T17:58:42.627Z,78.72
2023-02-15T18:04:16.216Z,78.02
2023-02-15T18:09:40.866Z,78.01
2023-02-15T18:14:45.117Z,78.06
2023-02-15T18:19:50.340Z,78.62
2023-02-15T18:24:54.146Z,79.20
2023-02-15T18:29:57.885Z,79.82
2023-02-15T18:35:02.134Z,81.12
2023-02-15T18:40:06.233Z,81.17
2023-02-15T18:45:41.862Z,81.02
2023-02-15T18:50:46.744Z,80.76
2023-02-15T18:56:01.780Z,80.53
2023-02-15T19:01:06.092Z,80.69
2023-02-15T19:06:14.124Z,80.99
2023-02-15T19:11:23.655Z,82.25
2023-02-15T19:16:35.273Z,83.05
2023-02-15T19:21:39.780Z,83.35
2023-02-15T19:26:45.881Z,82.87
2023-02-15T19:31:52.270Z,82.21
2023-02-15T19:36:56.919Z,81.54
2023-02-15T19:42:00.371Z,82.09
2023-02-15T19:47:04.892Z,82.39
2023-02-15T19:52:20.794Z,82.29
2023-02-15T19:57:25.346Z,82.04
2023-02-15T20:02:31.295Z,81.68
2023-02-15T20:07:40.751Z,82.17
2023-02-15T20:12:44.895Z,82.47
2023-02-15T20:17:49.348Z,82.64
2023-02-15T20:22:52.940Z,82.60
2023-02-15T20:28:01.752Z,82.80
2023-02-15T20:33:25.367Z,82.37
2023-02-15T20:38:38.264Z,83.04
2023-02-15T20:44:00.746Z,82.57
2023-02-15T20:49:07.350Z,82.96
2023-02-15T20:54:16.621Z,82.59
2023-02-15T20:59:24.547Z,82.96
2023-02-15T21:04:43.345Z,83.16
2023-02-15T21:09:47.053Z,82.19
2023-02-15T21:14:51.141Z,83.32
2023-02-15T21:20:25.561Z,83.37
2023-02-15T21:25:44.488Z,82.78
2023-02-15T21:31:04.931Z,83.75
2023-02-15T21:36:28.361Z,83.30
2023-02-15T21:41:50.624Z,83.29
2023-02-15T21:47:37.181Z,83.29
2023-02-15T21:52:51.137Z,83.11
2023-02-15T21:58:08.229Z,83.16
2023-02-15T22:03:12.453Z,83.21
2023-02-15T22:08:49.136Z,83.88
2023-02-15T22:13:55.158Z,83.36
2023-02-15T22:18:58.859Z,82.39
2023-02-15T22:24:02.470Z,82.01
2023-02-15T22:29:06.383Z,82.62
2023-02-15T22:34:28.121Z,82.21
2023-02-15T22:39:32.279Z,82.09
2023-02-15T22:44:44.948Z,82.18
2023-02-15T22:49:52.318Z,81.98
2023-02-15T22:55:16.413Z,82.20
2023-02-15T23:00:23.558Z,81.76
2023-02-15T23:05:38.434Z,82.42
2023-02-15T23:10:56.636Z,82.52
2023-02-15T23:20:15.799Z,82.37
2023-02-15T23:25:38.480Z,82.06
2023-02-15T23:30:40.535Z,83.40
2023-02-15T23:35:43.110Z,83.31
2023-02-15T23:41:10.394Z,83.39
2023-02-15T23:46:28.322Z,84.55
2023-02-15T23:51:31.282Z,84.98
2023-02-15T23:56:33.758Z,85.79
